Time;durP1;ratioP1;P1;durP2;ratioP2;P2;SDS_P1;SDS_P2;PMS_P1;PMS_P2;Temp;Humidity;BMP_temperature;BMP_pressure;BME280_temperature;BME280_humidity;BME280_pressure;Samples;Min_cycle;Max_cycle;Signal;HPM_P1;HPM_P2
2022/11/09 00:00:19;;;;;;;0.00;0.00;;;;;;;11.22;72.40;98656.22;7355297;19;20015;-58
2022/11/09 00:02:45;;;;;;;0.00;0.00;;;;;;;11.21;72.74;98658.00;7361092;19;20101;-57
2022/11/09 00:05:11;;;;;;;0.10;0.10;;;;;;;11.21;72.43;98665.81;7359483;19;20029;-58
2022/11/09 00:07:36;;;;;;;0.00;0.00;;;;;;;11.18;72.75;98661.59;7351775;19;20007;-58
2022/11/09 00:10:02;;;;;;;0.05;0.05;;;;;;;11.20;72.70;98663.28;7351232;19;20007;-58
2022/11/09 00:12:27;;;;;;;0.00;0.00;;;;;;;11.21;72.56;98672.81;7352639;19;20014;-57
2022/11/09 00:14:52;;;;;;;0.00;0.00;;;;;;;11.20;72.36;98676.34;7331182;19;20014;-58
2022/11/09 00:17:18;;;;;;;0.00;0.00;;;;;;;11.20;72.75;98673.72;7318909;19;20025;-58
2022/11/09 00:19:43;;;;;;;0.00;0.00;;;;;;;11.20;72.26;98676.34;7346783;19;20022;-58
2022/11/09 00:22:08;;;;;;;0.00;0.00;;;;;;;11.20;72.82;98682.41;7348659;19;20006;-56
2022/11/09 00:24:34;;;;;;;0.10;0.10;;;;;;;11.19;72.64;98680.72;7357959;19;20018;-55
2022/11/09 00:26:59;;;;;;;0.00;0.00;;;;;;;11.19;72.89;98691.19;7360134;19;20018;-55
2022/11/09 00:29:25;;;;;;;0.00;0.00;;;;;;;11.21;72.11;98689.34;7359282;19;20030;-56
2022/11/09 00:31:50;;;;;;;0.10;0.10;;;;;;;11.16;72.45;98684.38;7362106;19;20021;-56
2022/11/09 00:34:15;;;;;;;0.00;0.00;;;;;;;11.22;72.25;98690.19;7360228;19;21476;-55
2022/11/09 00:36:42;;;;;;;0.00;0.00;;;;;;;11.20;72.35;98685.00;7357280;19;20010;-56
2022/11/09 00:39:08;;;;;;;0.00;0.00;;;;;;;11.09;72.61;98669.97;7360695;19;20469;-56
2022/11/09 00:41:33;;;;;;;0.00;0.00;;;;;;;11.21;72.32;98691.13;7360677;19;20018;-56
2022/11/09 00:43:58;;;;;;;0.00;0.00;;;;;;;11.20;72.02;98682.41;7359357;19;21415;-56
2022/11/09 00:46:24;;;;;;;0.10;0.10;;;;;;;11.09;72.42;98667.34;7358363;19;20030;-56
2022/11/09 00:48:49;;;;;;;0.00;0.00;;;;;;;11.22;72.11;98684.94;7361458;19;20013;-56
2022/11/09 00:51:15;;;;;;;0.10;0.10;;;;;;;11.21;71.93;98688.50;7359552;19;20817;-56
2022/11/09 00:53:41;;;;;;;0.00;0.00;;;;;;;11.22;72.54;98690.19;7359589;19;20018;-56
2022/11/09 00:56:11;;;;;;;0.00;0.00;;;;;;;11.24;72.64;98701.38;7359984;19;20021;-55
2022/11/09 00:58:38;;;;;;;0.10;0.10;;;;;;;11.15;72.83;98682.69;7359720;19;20030;-56
2022/11/09 01:01:14;;;;;;;0.00;0.00;;;;;;;11.20;71.87;98692.84;7358239;19;20007;-58
2022/11/09 01:03:40;;;;;;;0.00;0.00;;;;;;;11.22;72.63;98705.84;7360934;19;20014;-58
2022/11/09 01:06:05;;;;;;;0.00;0.00;;;;;;;11.21;72.84;98709.41;7359330;19;20025;-58
2022/11/09 01:08:32;;;;;;;0.00;0.00;;;;;;;11.22;72.26;98716.31;7359739;19;20014;-58
2022/11/09 01:11:06;;;;;;;0.00;0.00;;;;;;;11.19;72.24;98727.75;7358162;19;20027;-58
2022/11/09 01:13:32;;;;;;;0.00;0.00;;;;;;;11.19;72.12;98725.13;7358409;19;20007;-58
2022/11/09 01:15:58;;;;;;;0.10;0.10;;;;;;;11.16;72.48;98734.00;7361452;19;20118;-58
2022/11/09 01:18:23;;;;;;;0.00;0.00;;;;;;;11.17;72.09;98733.06;7359768;19;20467;-58
2022/11/09 01:20:49;;;;;;;0.00;0.00;;;;;;;11.15;72.09;98737.56;7354327;19;20073;-58
2022/11/09 01:23:17;;;;;;;0.00;0.00;;;;;;;11.14;72.08;98735.84;7358854;19;20037;-58
2022/11/09 01:25:43;;;;;;;0.00;0.00;;;;;;;11.13;72.16;98741.16;7357705;19;20831;-58
2022/11/09 01:28:10;;;;;;;0.00;0.00;;;;;;;10.99;72.09;98726.25;7360111;19;20898;-58
2022/11/09 01:30:41;;;;;;;0.10;0.10;;;;;;;11.11;71.69;98751.72;7357927;19;20515;-58
2022/11/09 01:33:09;;;;;;;0.00;0.00;;;;;;;11.07;72.02;98744.97;7366158;19;20025;-58
2022/11/09 01:35:36;;;;;;;0.00;0.00;;;;;;;11.05;71.92;98757.28;7363486;19;20046;-58
2022/11/09 01:38:03;;;;;;;0.00;0.00;;;;;;;10.94;72.15;98738.72;7366109;19;20010;-58
2022/11/09 01:40:30;;;;;;;0.00;0.00;;;;;;;11.03;71.95;98755.66;7366143;19;20521;-58
2022/11/09 01:42:56;;;;;;;0.03;0.03;;;;;;;11.01;72.04;98760.16;7366548;19;20030;-58
2022/11/09 01:45:23;;;;;;;0.00;0.00;;;;;;;11.00;71.78;98764.53;7364775;19;20018;-56
2022/11/09 01:48:10;;;;;;;0.00;0.00;;;;;;;11.00;72.23;98764.53;7363763;19;20045;-58
2022/11/09 01:50:43;;;;;;;0.00;0.00;;;;;;;10.98;71.93;98766.38;7365904;19;20824;-58
2022/11/09 01:53:17;;;;;;;0.00;0.00;;;;;;;10.96;71.66;98773.47;7365087;19;20015;-58
2022/11/09 01:55:47;;;;;;;0.00;0.00;;;;;;;10.95;71.89;98776.13;7364207;19;20647;-58
2022/11/09 01:58:18;;;;;;;0.00;0.00;;;;;;;10.93;71.96;98772.78;7362191;19;20074;-58
2022/11/09 02:00:47;;;;;;;0.00;0.00;;;;;;;10.86;71.77;98774.88;7364109;19;20010;-58
2022/11/09 02:03:38;;;;;;;0.00;0.00;;;;;;;10.90;71.48;98790.31;7364982;19;20017;-58
2022/11/09 02:06:07;;;;;;;0.00;0.00;;;;;;;10.86;72.36;98783.56;7363695;19;20017;-58
2022/11/09 02:08:33;;;;;;;0.00;0.00;;;;;;;10.84;72.00;98789.78;7365271;19;20043;-57
2022/11/09 02:11:07;;;;;;;0.00;0.00;;;;;;;10.82;71.86;98791.66;7365935;19;20015;-58
2022/11/09 02:13:35;;;;;;;0.00;0.00;;;;;;;10.78;72.39;98790.13;7363152;19;20019;-57
2022/11/09 02:16:01;;;;;;;;;;;;;;;10.82;71.42;98796.88;7365804;19;20093;-58
2022/11/09 02:18:26;;;;;;;0.03;0.03;;;;;;;10.77;71.83;98798.88;7365213;19;20015;-58
2022/11/09 02:20:54;;;;;;;0.10;0.10;;;;;;;10.72;71.51;98791.28;7365491;19;20013;-57
2022/11/09 02:23:20;;;;;;;0.00;0.00;;;;;;;10.62;72.25;98779.66;7363632;19;20006;-57
2022/11/09 02:25:51;;;;;;;0.00;0.00;;;;;;;10.60;71.89;98792.81;7360632;19;20310;-57
2022/11/09 02:28:16;;;;;;;0.10;0.10;;;;;;;10.68;71.66;98808.03;7365002;19;20650;-57
2022/11/09 02:30:45;;;;;;;0.00;0.00;;;;;;;10.61;72.16;98809.31;7364144;19;20010;-58
2022/11/09 02:33:10;;;;;;;0.00;0.00;;;;;;;10.64;72.11;98817.81;7364189;19;20015;-58
2022/11/09 02:35:35;;;;;;;0.03;0.03;;;;;;;10.61;71.78;98827.56;7365376;19;20034;-57
2022/11/09 02:38:01;;;;;;;0.00;0.00;;;;;;;10.62;71.86;98830.09;7360848;19;20031;-58
2022/11/09 02:40:36;;;;;;;0.00;0.00;;;;;;;10.63;71.47;98833.53;7364269;19;20026;-56
2022/11/09 02:43:04;;;;;;;0.00;0.00;;;;;;;10.46;72.08;98817.94;7362369;19;20021;-57
2022/11/09 02:45:29;;;;;;;0.00;0.00;;;;;;;10.58;72.01;98846.00;7362863;19;20014;-58
2022/11/09 02:47:54;;;;;;;0.05;0.05;;;;;;;10.57;71.86;98837.31;7365936;19;20354;-58
2022/11/09 02:50:20;;;;;;;0.00;0.00;;;;;;;10.55;71.98;98857.44;7361197;19;20034;-57
2022/11/09 02:52:45;;;;;;;0.00;0.00;;;;;;;10.53;71.76;98859.28;7361580;19;20822;-58
2022/11/09 02:55:11;;;;;;;0.00;0.00;;;;;;;10.52;71.81;98865.44;7363358;19;20402;-57
2022/11/09 02:57:36;;;;;;;0.00;0.00;;;;;;;10.53;72.05;98876.72;7360033;19;20022;-58
2022/11/09 03:00:03;;;;;;;0.00;0.00;;;;;;;10.52;72.25;98873.25;7360194;19;20017;-57
2022/11/09 03:02:29;;;;;;;0.00;0.00;;;;;;;10.51;71.96;98871.56;7365660;19;20492;-58
2022/11/09 03:04:54;;;;;;;0.00;0.00;;;;;;;10.51;72.26;98887.22;7364955;19;20018;-58
2022/11/09 03:07:20;;;;;;;0.00;0.00;;;;;;;10.50;72.16;98880.34;7364222;19;20776;-57
2022/11/09 03:09:45;;;;;;;0.00;0.00;;;;;;;10.49;71.97;98893.44;7365872;19;20074;-57
2022/11/09 03:12:29;;;;;;;0.00;0.00;;;;;;;10.47;71.80;98880.47;7363548;19;20021;-58
2022/11/09 03:14:59;;;;;;;0.10;0.10;;;;;;;10.48;72.12;98882.16;7363097;19;20033;-57
2022/11/09 03:17:25;;;;;;;0.00;0.00;;;;;;;10.45;71.68;98882.34;7365573;19;20458;-57
2022/11/09 03:19:51;;;;;;;0.10;0.10;;;;;;;10.34;72.39;98879.41;7361533;19;20111;-58
2022/11/09 03:22:17;;;;;;;0.03;0.03;;;;;;;10.44;71.59;98891.09;7362551;19;20022;-56
2022/11/09 03:24:42;;;;;;;0.00;0.00;;;;;;;10.44;71.63;98890.22;7361603;19;20725;-58
2022/11/09 03:27:08;;;;;;;0.00;0.00;;;;;;;10.43;71.75;98894.59;7362765;19;20088;-58
2022/11/09 03:29:33;;;;;;;0.03;0.03;;;;;;;10.40;72.48;98894.78;7365634;19;20010;-58
2022/11/09 03:31:58;;;;;;;0.00;0.00;;;;;;;10.38;72.33;98881.78;7358450;19;20006;-57
2022/11/09 03:34:24;;;;;;;0.00;0.00;;;;;;;10.38;72.57;98894.00;7365400;19;20006;-57
2022/11/09 03:36:49;;;;;;;0.00;0.00;;;;;;;10.37;72.13;98894.91;7361005;19;20331;-57
2022/11/09 03:39:15;;;;;;;0.00;0.00;;;;;;;10.40;71.89;98902.59;7365112;19;20015;-56
2022/11/09 03:41:40;;;;;;;0.00;0.00;;;;;;;10.36;72.26;98893.25;7363829;19;20030;-58
2022/11/09 03:44:05;;;;;;;0.00;0.00;;;;;;;10.37;72.16;98906.19;7364472;19;20759;-58
2022/11/09 03:46:31;;;;;;;0.00;0.00;;;;;;;10.36;72.34;98903.69;7364745;19;20361;-56
2022/11/09 03:48:56;;;;;;;0.00;0.00;;;;;;;10.36;72.03;98908.88;7364200;19;20018;-58
2022/11/09 03:51:22;;;;;;;0.00;0.00;;;;;;;10.35;72.40;98908.06;7362187;19;20014;-57
2022/11/09 03:53:47;;;;;;;0.00;0.00;;;;;;;10.33;72.18;98903.81;7364140;19;20062;-57
2022/11/09 03:56:12;;;;;;;0.00;0.00;;;;;;;10.33;72.67;98909.03;7361777;19;20022;-57
2022/11/09 03:58:38;;;;;;;0.00;0.00;;;;;;;10.35;72.15;98907.22;7363562;19;20010;-58
2022/11/09 04:01:03;;;;;;;0.00;0.00;;;;;;;10.31;72.45;98910.88;7362749;19;20027;-58
2022/11/09 04:03:29;;;;;;;0.00;0.00;;;;;;;10.32;72.67;98917.78;7362070;19;20007;-55
2022/11/09 04:05:56;;;;;;;0.00;0.00;;;;;;;10.31;72.57;98921.31;7355664;19;20018;-57
2022/11/09 04:08:21;;;;;;;;;;;;;;;10.35;71.37;98928.09;7365845;19;20090;-57
2022/11/09 04:10:47;;;;;;;0.00;0.00;;;;;;;10.32;72.09;98928.22;7364448;19;19994;-58
2022/11/09 04:13:12;;;;;;;0.10;0.10;;;;;;;10.31;72.56;98932.59;7361018;19;20609;-58
2022/11/09 04:15:38;;;;;;;0.00;0.00;;;;;;;10.29;72.09;98931.84;7363506;19;20025;-57
2022/11/09 04:18:03;;;;;;;0.00;0.00;;;;;;;10.28;72.30;98944.94;7361948;19;21039;-58
2022/11/09 04:20:30;;;;;;;0.10;0.10;;;;;;;10.25;72.50;98943.34;7356863;19;20028;-57
2022/11/09 04:23:00;;;;;;;0.00;0.00;;;;;;;10.25;72.51;98960.75;7364258;19;20006;-55
2022/11/09 04:25:28;;;;;;;0.00;0.00;;;;;;;10.18;72.62;98946.28;7360606;19;20011;-55
2022/11/09 04:27:54;;;;;;;;;;;;;;;10.24;71.77;98959.94;7361402;19;20019;-56
2022/11/09 04:30:19;;;;;;;0.00;0.00;;;;;;;10.21;71.93;98973.06;7363313;19;20254;-56
2022/11/09 04:32:44;;;;;;;0.00;0.00;;;;;;;10.20;71.96;98971.38;7362796;19;20018;-55
2022/11/09 04:35:10;;;;;;;0.00;0.00;;;;;;;10.19;72.27;98984.47;7362981;19;20050;-55
2022/11/09 04:37:35;;;;;;;0.00;0.00;;;;;;;10.10;72.41;98976.22;7360638;19;20102;-54
2022/11/09 04:40:00;;;;;;;0.00;0.00;;;;;;;10.13;71.96;98981.25;7364065;19;20025;-55
2022/11/09 04:42:26;;;;;;;0.00;0.00;;;;;;;10.12;72.04;98982.19;7364233;19;20023;-54
2022/11/09 04:44:51;;;;;;;0.00;0.00;;;;;;;10.13;72.35;98986.47;7363872;19;20023;-55
2022/11/09 04:47:17;;;;;;;0.00;0.00;;;;;;;10.14;72.03;98988.19;7364298;19;20038;-55
2022/11/09 04:49:42;;;;;;;0.00;0.00;;;;;;;10.09;72.54;98979.75;7361036;19;20747;-54
2022/11/09 04:52:07;;;;;;;0.03;0.03;;;;;;;10.12;72.26;98982.19;7363655;19;20023;-56
2022/11/09 04:54:33;;;;;;;0.00;0.00;;;;;;;10.13;72.11;98985.63;7361160;19;20597;-56
2022/11/09 04:56:58;;;;;;;0.00;0.00;;;;;;;10.11;72.47;98980.50;7364085;19;20023;-55
2022/11/09 04:59:24;;;;;;;0.00;0.00;;;;;;;10.02;72.94;98970.50;7362075;19;20541;-56
2022/11/09 05:01:49;;;;;;;0.00;0.00;;;;;;;10.11;72.86;98983.09;7363775;19;20006;-55
2022/11/09 05:04:14;;;;;;;0.00;0.00;;;;;;;10.15;72.51;98994.25;7362353;19;20489;-56
2022/11/09 05:06:40;;;;;;;0.00;0.00;;;;;;;10.17;72.79;99000.22;7363162;19;20010;-56
2022/11/09 05:09:06;;;;;;;0.00;0.00;;;;;;;10.20;72.39;99004.47;7370443;19;20037;-54
2022/11/09 05:11:33;;;;;;;0.10;0.10;;;;;;;10.18;72.98;99008.88;7368293;19;20033;-56
2022/11/09 05:13:59;;;;;;;0.00;0.00;;;;;;;10.16;72.37;99008.97;7367707;19;20018;-55
2022/11/09 05:16:26;;;;;;;0.00;0.00;;;;;;;10.13;72.48;99001.28;7370006;19;20723;-56
2022/11/09 05:18:52;;;;;;;0.00;0.00;;;;;;;10.19;72.65;99005.34;7369373;19;20018;-56
2022/11/09 05:21:17;;;;;;;0.00;0.00;;;;;;;10.19;72.54;99007.97;7369441;19;21120;-55
2022/11/09 05:23:58;;;;;;;0.10;0.10;;;;;;;10.19;72.55;99011.44;7367422;19;20049;-55
2022/11/09 05:26:28;;;;;;;0.00;0.00;;;;;;;10.20;72.83;99012.28;7368404;19;20010;-55
2022/11/09 05:28:54;;;;;;;0.03;0.03;;;;;;;10.21;72.54;99013.97;7366023;19;20843;-55
2022/11/09 05:31:20;;;;;;;0.00;0.00;;;;;;;10.22;72.59;99026.09;7366951;19;20010;-55
2022/11/09 05:33:49;;;;;;;0.00;0.00;;;;;;;10.20;72.51;99017.50;7368494;19;20053;-55
2022/11/09 05:36:14;;;;;;;0.00;0.00;;;;;;;10.23;72.50;99043.41;7367189;19;20702;-56
2022/11/09 05:38:40;;;;;;;0.00;0.00;;;;;;;10.21;72.36;99046.13;7368782;19;20014;-55
2022/11/09 05:41:05;;;;;;;0.03;0.03;;;;;;;10.22;72.11;99036.53;7367769;19;20023;-56
2022/11/09 05:43:30;;;;;;;0.00;0.00;;;;;;;10.20;72.22;99043.59;7368016;19;20466;-55
2022/11/09 05:45:56;;;;;;;0.00;0.00;;;;;;;10.19;72.55;99052.31;7368190;19;20661;-55
2022/11/09 05:48:21;;;;;;;0.00;0.00;;;;;;;10.18;72.17;99045.41;7365618;19;20022;-55
2022/11/09 05:50:47;;;;;;;0.00;0.00;;;;;;;10.17;72.23;99048.94;7368525;19;20564;-55
2022/11/09 05:53:12;;;;;;;0.00;0.00;;;;;;;10.13;72.32;99054.28;7368706;19;20610;-55
2022/11/09 05:55:38;;;;;;;0.00;0.00;;;;;;;10.13;71.99;99050.84;7368747;19;20014;-54
2022/11/09 05:58:03;;;;;;;0.00;0.00;;;;;;;10.12;72.13;99062.19;7367637;19;20040;-55
2022/11/09 06:00:29;;;;;;;0.03;0.03;;;;;;;10.09;72.42;99060.59;7368076;19;20010;-55
2022/11/09 06:03:04;;;;;;;0.10;0.10;;;;;;;10.09;71.90;99068.41;7368264;19;20010;-56
2022/11/09 06:05:32;;;;;;;0.00;0.00;;;;;;;10.09;72.15;99073.63;7368345;19;20503;-55
2022/11/09 06:08:00;;;;;;;;;;;;;;;10.05;71.34;99061.66;7368078;19;20013;-55
2022/11/09 06:10:26;;;;;;;0.00;0.00;;;;;;;10.05;71.97;99082.50;7368692;19;20379;-55
2022/11/09 06:12:51;;;;;;;0.00;0.00;;;;;;;10.04;72.25;99075.59;7369023;19;20022;-55
2022/11/09 06:15:16;;;;;;;0.00;0.00;;;;;;;10.02;72.10;99087.84;7368521;19;22195;-55
2022/11/09 06:17:42;;;;;;;0.00;0.00;;;;;;;10.01;72.20;99088.78;7367494;19;20006;-55
2022/11/09 06:20:07;;;;;;;0.00;0.00;;;;;;;9.99;72.65;99082.78;7367493;19;20021;-55
2022/11/09 06:22:33;;;;;;;0.00;0.00;;;;;;;9.90;72.52;99078.00;7368334;19;20027;-54
2022/11/09 06:24:58;;;;;;;0.00;0.00;;;;;;;9.96;72.86;99085.53;7368270;19;20010;-53
2022/11/09 06:27:24;;;;;;;0.00;0.00;;;;;;;9.96;72.65;99093.34;7365298;19;20081;-54
2022/11/09 06:29:49;;;;;;;0.00;0.00;;;;;;;9.96;72.84;99093.34;7367295;19;20030;-56
2022/11/09 06:32:14;;;;;;;0.00;0.00;;;;;;;9.94;73.08;99100.41;7366384;19;20014;-55
2022/11/09 06:34:42;;;;;;;0.00;0.00;;;;;;;9.85;73.06;99093.00;7368358;19;20020;-55
2022/11/09 06:37:07;;;;;;;0.00;0.00;;;;;;;9.89;72.71;99094.56;7367428;19;20026;-55
2022/11/09 06:39:32;;;;;;;0.00;0.00;;;;;;;9.98;72.67;99107.16;7367536;19;20010;-55
2022/11/09 06:41:58;;;;;;;0.00;0.00;;;;;;;9.98;73.32;99112.38;7366713;19;20720;-56
2022/11/09 06:44:23;;;;;;;0.00;0.00;;;;;;;10.00;73.33;99105.34;7367917;19;20010;-55
2022/11/09 06:46:48;;;;;;;0.00;0.00;;;;;;;10.02;73.36;99113.09;7365175;19;20526;-55
2022/11/09 06:49:14;;;;;;;0.00;0.00;;;;;;;10.03;73.34;99107.78;7366618;19;20026;-54
2022/11/09 06:51:39;;;;;;;0.00;0.00;;;;;;;10.06;73.04;99110.28;7362860;19;20010;-55
2022/11/09 06:54:05;;;;;;;0.00;0.00;;;;;;;10.05;73.23;99113.81;7367265;19;20056;-56
2022/11/09 06:56:30;;;;;;;0.10;0.10;;;;;;;10.11;72.96;99139.59;7367787;19;20011;-55
2022/11/09 06:58:55;;;;;;;0.00;0.00;;;;;;;10.12;73.27;99130.84;7356768;19;20018;-55
2022/11/09 07:01:26;;;;;;;0.00;0.00;;;;;;;10.15;72.86;99150.75;7366180;19;20003;-55
2022/11/09 07:03:52;;;;;;;0.00;0.00;;;;;;;10.14;72.25;99139.47;7364913;19;20013;-56
2022/11/09 07:06:17;;;;;;;0.00;0.00;;;;;;;10.13;72.36;99153.41;7365347;19;20014;-55
2022/11/09 07:08:42;;;;;;;0.00;0.00;;;;;;;10.17;72.45;99155.88;7363739;19;20094;-56
2022/11/09 07:11:11;;;;;;;0.00;0.00;;;;;;;10.15;72.38;99163.78;7366177;19;20003;-55
2022/11/09 07:13:37;;;;;;;0.00;0.00;;;;;;;10.13;72.75;99158.63;7364153;19;20028;-55
2022/11/09 07:16:03;;;;;;;0.00;0.00;;;;;;;10.12;72.83;99188.22;7365703;19;20071;-55
2022/11/09 07:18:29;;;;;;;0.00;0.00;;;;;;;10.13;72.78;99178.66;7363763;19;20021;-55
2022/11/09 07:20:54;;;;;;;0.00;0.00;;;;;;;10.01;73.00;99158.34;7364083;19;20438;-55
2022/11/09 07:23:20;;;;;;;0.00;0.00;;;;;;;10.09;73.01;99187.53;7364526;19;20022;-55
2022/11/09 07:25:45;;;;;;;0.10;0.10;;;;;;;10.08;73.09;99186.66;7360267;19;20007;-56
2022/11/09 07:28:11;;;;;;;0.00;0.00;;;;;;;10.07;72.71;99200.63;7352053;19;20010;-55
2022/11/09 07:30:37;;;;;;;0.10;0.10;;;;;;;10.06;72.75;99204.16;7362589;19;20474;-55
2022/11/09 07:33:03;;;;;;;0.10;0.10;;;;;;;10.01;72.49;99198.31;7365183;19;20022;-55
2022/11/09 07:35:29;;;;;;;0.10;0.10;;;;;;;10.05;72.66;99214.69;7361861;19;20462;-55
2022/11/09 07:37:58;;;;;;;0.00;0.00;;;;;;;9.98;72.18;99216.69;7364444;19;20015;-58
2022/11/09 07:40:24;;;;;;;0.00;0.00;;;;;;;10.05;72.39;99236.38;7361856;19;20018;-57
2022/11/09 07:42:49;;;;;;;0.00;0.00;;;;;;;10.00;72.54;99235.72;7365242;19;20043;-57
2022/11/09 07:45:15;;;;;;;0.00;0.00;;;;;;;9.96;72.39;99228.13;7365647;19;20014;-58
2022/11/09 07:47:40;;;;;;;0.00;0.00;;;;;;;10.01;72.44;99247.84;7361304;19;20465;-58
2022/11/09 07:50:05;;;;;;;0.00;0.00;;;;;;;9.96;72.87;99254.19;7362761;19;20018;-57
2022/11/09 07:52:31;;;;;;;0.00;0.00;;;;;;;10.02;72.78;99261.75;7363469;19;20025;-56
2022/11/09 07:54:56;;;;;;;0.00;0.00;;;;;;;10.01;72.85;99267.88;7358024;19;20038;-57
2022/11/09 07:57:22;;;;;;;0.00;0.00;;;;;;;10.00;72.96;99277.47;7359485;19;20010;-57
2022/11/09 07:59:47;;;;;;;0.00;0.00;;;;;;;10.01;72.66;99300.00;7355826;19;20697;-57
2022/11/09 08:02:12;;;;;;;0.00;0.00;;;;;;;10.04;72.91;99291.22;7363621;19;20020;-58
2022/11/09 08:04:38;;;;;;;0.00;0.00;;;;;;;10.04;72.99;99305.09;7364435;19;20015;-57
2022/11/09 08:07:03;;;;;;;0.00;0.00;;;;;;;10.07;72.62;99324.97;7365302;19;20006;-58
2022/11/09 08:09:28;;;;;;;0.05;0.05;;;;;;;10.09;72.84;99329.22;7351145;19;20027;-56
2022/11/09 08:11:54;;;;;;;0.00;0.00;;;;;;;10.11;72.70;99336.97;7355163;19;20747;-57
2022/11/09 08:14:19;;;;;;;0.00;0.00;;;;;;;10.14;72.46;99335.09;7355885;19;20010;-57
2022/11/09 08:16:45;;;;;;;0.00;0.00;;;;;;;10.13;72.50;99332.53;7354698;19;20007;-57
2022/11/09 08:19:10;;;;;;;0.00;0.00;;;;;;;10.13;72.81;99341.22;7354821;19;20025;-56
2022/11/09 08:21:36;;;;;;;0.00;0.00;;;;;;;10.16;72.32;99340.25;7355208;19;20014;-58
2022/11/09 08:24:02;;;;;;;0.00;0.00;;;;;;;10.14;72.35;99353.38;7350798;19;20018;-57
2022/11/09 08:26:27;;;;;;;0.00;0.00;;;;;;;10.18;72.71;99364.50;7352329;19;20362;-56
2022/11/09 08:28:53;;;;;;;0.00;0.00;;;;;;;10.20;72.80;99372.28;7350292;19;20006;-55
2022/11/09 08:31:18;;;;;;;0.00;0.00;;;;;;;10.22;72.64;99370.44;7357059;19;20615;-53
2022/11/09 08:33:43;;;;;;;0.00;0.00;;;;;;;10.18;72.98;99355.81;7354075;19;20002;-56
2022/11/09 08:36:14;;;;;;;0.00;0.00;;;;;;;10.32;72.63;99356.13;7356206;19;20359;-55
2022/11/09 08:38:40;;;;;;;0.00;0.00;;;;;;;10.35;72.99;99382.09;7353346;19;20016;-55
2022/11/09 08:41:06;;;;;;;0.00;0.00;;;;;;;10.39;73.00;99373.19;7352215;19;20027;-55
2022/11/09 08:43:32;;;;;;;0.00;0.00;;;;;;;10.39;73.00;99366.25;7356268;19;20945;-56
2022/11/09 08:45:58;;;;;;;0.00;0.00;;;;;;;10.43;72.83;99374.75;7355905;19;20021;-53
2022/11/09 08:48:23;;;;;;;0.00;0.00;;;;;;;10.41;72.48;99370.53;7354797;19;20006;-55
2022/11/09 08:50:53;;;;;;;0.00;0.00;;;;;;;10.45;72.34;99393.00;7356145;19;20006;-55
2022/11/09 08:53:19;;;;;;;0.03;0.03;;;;;;;10.42;72.35;99393.09;7352251;19;20021;-56
2022/11/09 08:55:44;;;;;;;0.10;0.10;;;;;;;10.40;72.73;99398.41;7355780;19;20011;-57
2022/11/09 08:58:10;;;;;;;0.00;0.00;;;;;;;10.38;72.31;99408.03;7355513;19;20036;-57
2022/11/09 09:00:35;;;;;;;0.00;0.00;;;;;;;10.30;72.93;99404.94;7355509;19;20011;-57
2022/11/09 09:03:04;;;;;;;0.00;0.00;;;;;;;10.35;72.80;99423.84;7356554;19;20010;-57
2022/11/09 09:05:30;;;;;;;0.00;0.00;;;;;;;10.32;72.79;99423.97;7355164;19;20348;-54
2022/11/09 09:07:58;;;;;;;0.05;0.05;;;;;;;10.32;72.64;99423.97;7356229;19;20041;-57
2022/11/09 09:10:23;;;;;;;0.00;0.00;;;;;;;10.29;72.64;99430.16;7353949;19;20042;-57
2022/11/09 09:12:49;;;;;;;0.00;0.00;;;;;;;10.32;72.92;99429.19;7355795;19;21537;-57
2022/11/09 09:15:14;;;;;;;0.00;0.00;;;;;;;10.35;72.60;99429.06;7354447;19;20002;-57
2022/11/09 09:17:40;;;;;;;0.00;0.00;;;;;;;10.34;72.62;99428.22;7355034;19;20014;-58
2022/11/09 09:20:06;;;;;;;0.10;0.10;;;;;;;10.39;72.77;99441.03;7352902;19;20121;-57
2022/11/09 09:22:32;;;;;;;0.10;0.10;;;;;;;10.43;72.47;99447.84;7354243;19;20006;-58
2022/11/09 09:24:57;;;;;;;0.00;0.00;;;;;;;10.44;72.39;99443.47;7355800;19;20009;-57
2022/11/09 09:27:23;;;;;;;0.00;0.00;;;;;;;10.52;72.17;99455.28;7354879;19;20047;-57
2022/11/09 09:29:48;;;;;;;0.00;0.00;;;;;;;10.52;72.31;99451.81;7355345;19;20027;-57
2022/11/09 09:32:13;;;;;;;0.00;0.00;;;;;;;10.53;72.01;99459.59;7354175;19;20018;-56
2022/11/09 09:34:39;;;;;;;0.10;0.10;;;;;;;10.52;71.93;99463.13;7355198;19;20003;-58
2022/11/09 09:37:04;;;;;;;0.00;0.00;;;;;;;10.52;72.24;99468.34;7354554;19;20364;-57
2022/11/09 09:39:30;;;;;;;0.00;0.00;;;;;;;10.63;72.88;99473.09;7353717;19;20034;-57
2022/11/09 09:41:58;;;;;;;0.00;0.00;;;;;;;10.82;73.52;99474.00;7354648;19;20017;-58
2022/11/09 09:44:31;;;;;;;0.00;0.00;;;;;;;11.06;73.41;99489.53;7353666;19;20098;-57
2022/11/09 09:47:02;;;;;;;0.00;0.00;;;;;;;11.34;73.55;99500.44;7353713;19;20011;-57
2022/11/09 09:49:30;;;;;;;0.00;0.00;;;;;;;11.60;73.72;99491.41;7349008;19;20007;-57
2022/11/09 09:52:02;;;;;;;0.00;0.00;;;;;;;11.88;73.28;99498.00;7353588;19;20029;-57
2022/11/09 09:54:33;;;;;;;0.00;0.00;;;;;;;12.12;72.02;99491.63;7359858;19;20014;-58
2022/11/09 09:57:00;;;;;;;0.00;0.00;;;;;;;12.28;72.73;99498.72;7360811;19;20011;-56
2022/11/09 09:59:41;;;;;;;0.00;0.00;;;;;;;12.68;72.13;99503.66;7359722;19;20006;-54
2022/11/09 10:02:25;;;;;;;0.00;0.00;;;;;;;12.97;72.14;99503.94;7359335;19;20087;-56
2022/11/09 10:04:56;;;;;;;0.00;0.00;;;;;;;13.16;70.98;99515.16;7359312;19;20647;-56
2022/11/09 10:07:26;;;;;;;0.00;0.00;;;;;;;13.35;70.19;99503.75;7359900;19;20016;-55
2022/11/09 10:10:36;;;;;;;0.00;0.00;;;;;;;13.63;71.22;99513.59;7357036;19;20011;-56
2022/11/09 10:13:38;;;;;;;0.00;0.00;;;;;;;13.93;70.33;99517.16;7257570;19;2004440;-56
2022/11/09 10:16:13;;;;;;;0.10;0.10;;;;;;;14.18;68.57;99519.25;7255123;19;2004049;-54
2022/11/09 10:19:02;;;;;;;0.00;0.00;;;;;;;14.37;68.97;99532.22;7360964;19;20024;-56
2022/11/09 10:21:48;;;;;;;0.00;0.00;;;;;;;14.72;69.12;99532.00;7360080;19;20007;-56
2022/11/09 10:24:27;;;;;;;0.00;0.00;;;;;;;14.99;68.90;99540.03;7358034;19;20063;-55
2022/11/09 10:26:57;;;;;;;0.00;0.00;;;;;;;15.19;66.59;99547.56;7359627;19;20472;-56
2022/11/09 10:29:26;;;;;;;0.00;0.00;;;;;;;15.42;65.79;99553.25;7357972;19;20007;-55
2022/11/09 10:32:00;;;;;;;0.05;0.05;;;;;;;15.66;65.06;99562.28;7359555;19;20924;-56
2022/11/09 10:34:41;;;;;;;0.00;0.00;;;;;;;15.83;65.66;99551.56;7358810;19;20025;-54
2022/11/09 10:37:15;;;;;;;0.05;0.05;;;;;;;16.12;66.73;99564.69;7358397;19;20466;-56
2022/11/09 10:39:55;;;;;;;0.00;0.00;;;;;;;16.38;65.80;99564.78;7359614;19;20014;-56
2022/11/09 10:42:20;;;;;;;0.00;0.00;;;;;;;16.43;65.36;99557.44;7359630;19;20489;-54
2022/11/09 10:44:46;;;;;;;0.10;0.10;;;;;;;16.73;62.50;99576.53;7359095;19;20018;-55
2022/11/09 10:47:16;;;;;;;0.00;0.00;;;;;;;16.95;62.58;99572.47;7359245;19;20098;-56
2022/11/09 10:49:42;;;;;;;0.00;0.00;;;;;;;17.09;61.38;99577.66;7359260;19;20029;-56
2022/11/09 10:52:39;;;;;;;0.03;0.03;;;;;;;17.40;65.25;99581.69;7360432;19;20453;-55
2022/11/09 10:55:35;;;;;;;0.00;0.00;;;;;;;17.60;63.39;99590.88;7256708;19;2004466;-56
2022/11/09 10:58:21;;;;;;;0.00;0.00;;;;;;;17.68;60.44;99592.97;7257317;19;2004683;-55
2022/11/09 11:01:19;;;;;;;0.00;0.00;;;;;;;17.96;62.87;99599.84;7357062;19;20082;-56
2022/11/09 11:03:47;;;;;;;0.00;0.00;;;;;;;18.05;58.50;99591.28;7254886;19;2004391;-57
2022/11/09 11:06:21;;;;;;;0.10;0.10;;;;;;;18.29;60.25;99596.56;7359504;19;20007;-55
2022/11/09 11:08:59;;;;;;;0.00;0.00;;;;;;;18.32;58.48;99607.78;7356977;19;20485;-56
2022/11/09 11:11:27;;;;;;;0.10;0.10;;;;;;;18.49;57.82;99600.41;7358818;19;20026;-55
2022/11/09 11:14:04;;;;;;;0.05;0.05;;;;;;;18.69;59.91;99602.47;7357372;19;20010;-56
2022/11/09 11:16:35;;;;;;;0.10;0.10;;;;;;;18.80;59.18;99604.31;7360032;19;20028;-56
2022/11/09 11:19:01;;;;;;;0.00;0.00;;;;;;;18.89;56.88;99615.06;7357189;19;21507;-56
2022/11/09 11:21:27;;;;;;;0.10;0.10;;;;;;;19.05;55.52;99604.16;7357972;19;20133;-53
2022/11/09 11:24:19;;;;;;;0.03;0.03;;;;;;;19.30;59.53;99610.25;7359910;19;20048;-56
2022/11/09 11:27:05;;;;;;;0.00;0.00;;;;;;;19.48;60.23;99626.56;7256919;19;2004639;-56
2022/11/09 11:29:33;;;;;;;0.00;0.00;;;;;;;19.58;57.26;99636.31;7358122;19;20011;-55
2022/11/09 11:31:59;;;;;;;0.00;0.00;;;;;;;19.62;55.14;99624.56;7359030;19;20017;-56
2022/11/09 11:34:24;;;;;;;0.00;0.00;;;;;;;19.80;55.18;99640.81;7359378;19;20006;-55
2022/11/09 11:37:20;;;;;;;0.10;0.10;;;;;;;20.00;57.57;99638.41;7358091;19;20010;-55